Time;durP1;ratioP1;P1;durP2;ratioP2;P2;SDS_P1;SDS_P2;PMS_P1;PMS_P2;Temp;Humidity;BMP_temperature;BMP_pressure;BME280_temperature;BME280_humidity;BME280_pressure;Samples;Min_cycle;Max_cycle;Signal;HPM_P1;HPM_P2
2021/11/17 02:28:10;;;;;;;49.50;19.97;;;;;5.90;101480.00;;;;10431977;28;20198;-78
2021/11/17 02:33:28;;;;;;;51.30;20.20;;;;;5.70;101481.00;;;;10426953;28;20230;-78
2021/11/17 02:38:51;;;;;;;57.83;21.50;;;;;5.60;101482.00;;;;10410267;28;20206;-78
2021/11/17 02:44:51;;;;;;;48.13;20.07;;;;;5.50;101497.00;;;;10404222;28;20202;-78
2021/11/17 02:50:16;;;;;;;53.50;21.80;;;;;5.50;101500.00;;;;10374725;28;20575;-78
2021/11/17 02:55:41;;;;;;;53.53;21.27;;;;;5.70;101516.00;;;;10439824;28;20210;-78
2021/11/17 03:01:14;;;;;;;59.00;22.57;;;;;5.80;101522.00;;;;10392303;28;20190;-78
2021/11/17 03:06:55;;;;;;;64.63;22.10;;;;;5.90;101528.00;;;;10446948;28;20230;-78
2021/11/17 03:12:27;;;;;;;57.17;21.13;;;;;6.00;101534.00;;;;10369658;28;20194;-78
2021/11/17 03:17:51;;;;;;;52.80;22.37;;;;;6.20;101524.00;;;;10442463;28;20214;-78
2021/11/17 03:22:59;;;;;;;55.67;21.80;;;;;6.20;101521.00;;;;10401330;28;20253;-78
2021/11/17 03:28:09;;;;;;;65.33;23.77;;;;;6.30;101522.00;;;;10425955;28;20214;-78
2021/11/17 03:33:14;;;;;;;59.10;22.80;;;;;6.30;101516.00;;;;10383099;28;20241;-78
2021/11/17 03:38:34;;;;;;;59.40;23.00;;;;;6.40;101510.00;;;;10408690;28;20261;-79
2021/11/17 03:43:51;;;;;;;59.73;24.10;;;;;6.40;101506.00;;;;10425385;28;20203;-78
2021/11/17 03:49:14;;;;;;;58.07;23.97;;;;;6.40;101509.00;;;;10425129;28;20194;-78
2021/11/17 03:54:26;;;;;;;65.73;25.03;;;;;6.40;101505.00;;;;10408671;28;20221;-79
2021/11/17 03:59:46;;;;;;;66.87;24.03;;;;;6.40;101516.00;;;;10409992;28;20206;-79
2021/11/17 04:05:03;;;;;;;58.97;23.70;;;;;6.40;101514.00;;;;10423136;28;20217;-78
2021/11/17 04:10:08;;;;;;;59.90;24.70;;;;;6.50;101516.00;;;;10382073;28;20272;-78
2021/11/17 04:15:20;;;;;;;54.40;23.47;;;;;6.50;101528.00;;;;10424366;28;20220;-78
2021/11/17 04:20:34;;;;;;;57.63;24.03;;;;;6.60;101534.00;;;;10407125;28;20210;-78
2021/11/17 04:26:05;;;;;;;60.47;24.73;;;;;6.60;101530.00;;;;10414825;28;20194;-78
2021/11/17 04:31:30;;;;;;;58.90;25.07;;;;;6.60;101525.00;;;;10398516;28;20702;-79
2021/11/17 04:36:53;;;;;;;62.60;25.30;;;;;6.60;101519.00;;;;10394145;28;20712;-79
2021/11/17 04:42:20;;;;;;;66.57;24.97;;;;;6.60;101508.00;;;;10468604;28;20665;-79
2021/11/17 04:48:10;;;;;;;67.50;25.03;;;;;6.70;101508.00;;;;10425894;28;20572;-79
2021/11/17 04:53:15;;;;;;;59.90;24.70;;;;;6.60;101495.00;;;;10407023;28;20653;-78
2021/11/17 04:58:42;;;;;;;62.47;24.13;;;;;6.60;101481.00;;;;10427390;28;20206;-78
2021/11/17 05:04:04;;;;;;;61.93;23.83;;;;;6.50;101499.00;;;;10438200;28;20654;-79
2021/11/17 05:09:15;;;;;;;67.10;25.40;;;;;6.50;101511.00;;;;10431961;28;20198;-79
2021/11/17 05:14:32;;;;;;;64.23;24.87;;;;;6.60;101506.00;;;;10408838;28;20194;-79
2021/11/17 05:19:37;;;;;;;69.10;27.07;;;;;6.70;101500.00;;;;10430254;28;20198;-79
2021/11/17 05:24:44;;;;;;;67.20;26.17;;;;;6.80;101490.00;;;;10442133;28;20198;-78
2021/11/17 05:29:46;;;;;;;63.77;24.03;;;;;6.80;101471.00;;;;10412869;28;20206;-79
2021/11/17 05:35:12;;;;;;;58.37;23.90;;;;;6.70;101474.00;;;;10428006;28;20273;-79
2021/11/17 05:40:23;;;;;;;66.03;24.50;;;;;6.70;101458.00;;;;10417546;28;20202;-78
2021/11/17 05:45:46;;;;;;;65.77;24.77;;;;;6.70;101476.00;;;;10412228;28;20653;-79
2021/11/17 05:51:00;;;;;;;74.10;26.50;;;;;6.80;101479.00;;;;10418970;28;20252;-79
2021/11/17 05:56:11;;;;;;;66.47;24.50;;;;;6.80;101491.00;;;;10403659;28;20219;-78
2021/11/17 06:01:16;;;;;;;71.03;28.03;;;;;7.00;101492.00;;;;10406064;28;20201;-78
2021/11/17 06:06:18;;;;;;;70.03;26.83;;;;;7.10;101502.00;;;;10428140;28;20214;-79
2021/11/17 06:11:40;;;;;;;70.10;27.17;;;;;7.10;101490.00;;;;10426595;28;20209;-77
2021/11/17 06:16:46;;;;;;;61.77;24.33;;;;;7.10;101492.00;;;;10418587;28;20245;-78
2021/11/17 06:21:49;;;;;;;79.83;26.83;;;;;7.20;101496.00;;;;10426859;28;20210;-79
2021/11/17 06:26:52;;;;;;;77.97;27.07;;;;;7.30;101511.00;;;;10428413;28;20213;-79
2021/11/17 06:31:55;;;;;;;71.53;25.87;;;;;7.30;101507.00;;;;10419328;28;20230;-79
2021/11/17 06:37:00;;;;;;;60.47;24.30;;;;;7.40;101514.00;;;;10426143;28;20202;-78
2021/11/17 06:42:15;;;;;;;70.77;26.10;;;;;7.40;101522.00;;;;10418092;28;20237;-78
2021/11/17 06:47:17;;;;;;;63.20;25.73;;;;;7.50;101524.00;;;;10427294;28;20198;-78
2021/11/17 06:52:20;;;;;;;61.70;24.23;;;;;7.50;101540.00;;;;10378266;28;20202;-78
2021/11/17 06:57:22;;;;;;;69.07;26.30;;;;;7.50;101533.00;;;;10425747;28;20211;-78
2021/11/17 07:02:24;;;;;;;66.83;26.43;;;;;7.60;101539.00;;;;10419104;28;20194;-79
2021/11/17 07:07:26;;;;;;;68.87;24.37;;;;;7.60;101545.00;;;;10425132;28;20684;-79
2021/11/17 07:12:28;;;;;;;67.00;27.40;;;;;7.70;101560.00;;;;10426622;28;20206;-78
2021/11/17 07:17:30;;;;;;;65.50;24.97;;;;;7.70;101548.00;;;;10441301;28;20210;-78
2021/11/17 07:22:32;;;;;;;66.73;24.97;;;;;7.70;101571.00;;;;10423546;28;20569;-79
2021/11/17 07:27:36;;;;;;;81.47;27.73;;;;;7.70;101582.00;;;;10387569;28;20199;-79
2021/11/17 07:32:38;;;;;;;69.70;26.17;;;;;7.80;101582.00;;;;10412054;28;20222;-79
2021/11/17 07:37:41;;;;;;;63.63;26.37;;;;;7.80;101587.00;;;;10408192;28;20214;-78
2021/11/17 07:42:43;;;;;;;76.80;28.40;;;;;7.80;101588.00;;;;10438542;28;20248;-79
2021/11/17 07:47:45;;;;;;;71.47;25.00;;;;;7.90;101583.00;;;;10404607;28;20218;-79
2021/11/17 07:52:48;;;;;;;68.27;25.93;;;;;7.90;101583.00;;;;10384919;28;20881;-79
2021/11/17 07:57:52;;;;;;;73.47;25.53;;;;;8.00;101586.00;;;;10418965;28;20222;-79
2021/11/17 08:02:54;;;;;;;81.97;25.47;;;;;8.00;101587.00;;;;10432362;28;20245;-78
2021/11/17 08:07:59;;;;;;;69.73;25.37;;;;;8.00;101593.00;;;;10412730;28;20581;-79
2021/11/17 08:13:03;;;;;;;73.20;25.27;;;;;8.10;101583.00;;;;10380032;28;20201;-79
2021/11/17 08:18:05;;;;;;;77.13;25.97;;;;;8.40;101576.00;;;;10426185;28;20219;-78
2021/11/17 08:23:07;;;;;;;78.50;26.77;;;;;8.80;101579.00;;;;10446849;28;20225;-79
2021/11/17 08:28:12;;;;;;;73.47;25.43;;;;;9.20;101592.00;;;;10412390;28;20838;-79
2021/11/17 08:33:16;;;;;;;70.43;24.87;;;;;9.20;101614.00;;;;10424173;28;20254;-78
2021/11/17 08:38:24;;;;;;;70.97;25.20;;;;;9.00;101629.00;;;;10408567;28;20214;-77
2021/11/17 08:43:32;;;;;;;65.07;24.20;;;;;8.90;101635.00;;;;10439435;28;20206;-77
2021/11/17 08:48:37;;;;;;;67.87;24.90;;;;;8.80;101646.00;;;;10442159;28;20213;-77
2021/11/17 08:53:42;;;;;;;68.47;24.03;;;;;9.00;101640.00;;;;10419794;28;20231;-78
2021/11/17 08:58:44;;;;;;;61.90;23.23;;;;;9.30;101631.00;;;;10422800;28;20230;-78
2021/11/17 09:03:46;;;;;;;70.53;24.20;;;;;9.30;101648.00;;;;10394365;28;20210;-78
2021/11/17 09:08:51;;;;;;;68.23;24.40;;;;;9.20;101658.00;;;;10434617;28;20209;-78
2021/11/17 09:13:53;;;;;;;69.33;24.23;;;;;9.10;101659.00;;;;10417444;28;20257;-78
2021/11/17 09:18:59;;;;;;;58.33;23.77;;;;;8.90;101658.00;;;;10428203;28;20585;-78
2021/11/17 09:24:05;;;;;;;57.70;21.97;;;;;8.80;101664.00;;;;10440880;28;20677;-78
2021/11/17 09:29:08;;;;;;;62.77;21.67;;;;;8.90;101665.00;;;;10359027;28;20322;-78
2021/11/17 09:34:10;;;;;;;61.43;23.03;;;;;9.10;101667.00;;;;10429762;28;20218;-77
2021/11/17 09:39:13;;;;;;;61.03;23.23;;;;;9.30;101664.00;;;;10429143;28;20697;-78
2021/11/17 09:44:27;;;;;;;63.50;24.30;;;;;9.80;101674.00;;;;10444956;28;20202;-78
2021/11/17 09:49:52;;;;;;;68.73;24.50;;;;;10.40;101693.00;;;;10402876;28;20244;-78
2021/11/17 09:55:06;;;;;;;66.97;24.87;;;;;10.80;101701.00;;;;10425424;28;20237;-77
2021/11/17 10:00:15;;;;;;;59.63;23.13;;;;;10.90;101714.00;;;;10400313;28;20199;-77
2021/11/17 10:16:10;;;;;;;54.40;24.57;;;;;11.40;101712.00;;;;10403635;28;20221;-78
2021/11/17 10:21:29;;;;;;;48.83;22.57;;;;;11.30;101729.00;;;;10403003;28;20201;-79
2021/11/17 10:26:45;;;;;;;51.77;23.20;;;;;11.00;101722.00;;;;10463357;28;20243;-77
2021/11/17 10:32:03;;;;;;;52.23;23.27;;;;;10.90;101715.00;;;;10431592;28;20234;-76
2021/11/17 10:37:24;;;;;;;55.40;24.87;;;;;10.80;101712.00;;;;10439969;28;20221;-79
2021/11/17 10:42:35;;;;;;;45.53;23.27;;;;;10.50;101705.00;;;;10397754;28;20207;-77
2021/11/17 10:47:45;;;;;;;50.30;23.90;;;;;10.30;101706.00;;;;10408417;28;20199;-79
2021/11/17 10:52:58;;;;;;;54.70;25.77;;;;;10.30;101690.00;;;;10403116;28;20249;-77
2021/11/17 10:58:04;;;;;;;56.30;26.97;;;;;10.50;101692.00;;;;10416999;28;20221;-77
2021/11/17 11:03:09;;;;;;;58.93;27.30;;;;;11.10;101695.00;;;;10407186;28;20213;-76
2021/11/17 11:08:38;;;;;;;59.57;25.60;;;;;11.30;101704.00;;;;10418038;28;20190;-79
2021/11/17 11:13:45;;;;;;;47.20;25.10;;;;;11.40;101721.00;;;;10420357;28;20217;-77
2021/11/17 11:18:55;;;;;;;49.50;23.93;;;;;11.00;101713.00;;;;10418656;28;20292;-77
2021/11/17 11:24:26;;;;;;;47.43;24.47;;;;;10.60;101710.00;;;;10396133;28;20195;-79
2021/11/17 11:29:37;;;;;;;46.93;23.30;;;;;10.60;101712.00;;;;10417004;28;20190;-76
2021/11/17 11:34:57;;;;;;;46.93;23.80;;;;;10.60;101723.00;;;;10396359;28;20218;-79
2021/11/17 11:40:04;;;;;;;54.33;25.57;;;;;10.60;101717.00;;;;10380200;28;20219;-78
2021/11/17 11:45:09;;;;;;;48.33;25.60;;;;;10.90;101717.00;;;;10396686;28;20202;-78
2021/11/17 11:50:30;;;;;;;52.87;25.57;;;;;11.20;101722.00;;;;10387355;28;20285;-79
2021/11/17 11:55:50;;;;;;;51.53;26.10;;;;;11.20;101712.00;;;;10422344;28;20336;-78
2021/11/17 12:01:05;;;;;;;54.43;27.07;;;;;11.60;101725.00;;;;10421456;28;20205;-78
2021/11/17 12:06:12;;;;;;;57.27;28.07;;;;;12.10;101720.00;;;;10436622;28;20187;-79
2021/11/17 12:11:21;;;;;;;52.27;26.47;;;;;12.50;101731.00;;;;10434398;28;20249;-79
2021/11/17 12:16:45;;;;;;;47.90;23.53;;;;;12.30;101735.00;;;;10419995;28;20269;-79
2021/11/17 12:21:57;;;;;;;45.83;25.43;;;;;12.40;101734.00;;;;10427971;28;20202;-79
2021/11/17 12:27:11;;;;;;;40.33;22.87;;;;;12.50;101730.00;;;;10436222;28;20257;-78
2021/11/17 12:32:52;;;;;;;45.87;24.57;;;;;13.20;101744.00;;;;10396333;28;20239;-78
2021/11/17 12:37:59;;;;;;;44.90;24.83;;;;;13.80;101762.00;;;;10409641;28;20209;-79
2021/11/17 12:43:12;;;;;;;33.17;22.40;;;;;13.30;101752.00;;;;10401214;28;20195;-79
2021/11/17 12:48:35;;;;;;;38.73;21.67;;;;;13.10;101749.00;;;;10434575;28;20182;-76
2021/11/17 12:53:46;;;;;;;36.03;21.87;;;;;13.30;101745.00;;;;10420188;28;20198;-78
2021/11/17 12:59:14;;;;;;;36.57;21.63;;;;;13.90;101758.00;;;;10437968;28;20218;-79
2021/11/17 13:04:40;;;;;;;33.60;20.70;;;;;13.60;101757.00;;;;10420029;28;20276;-79
2021/11/17 13:09:42;;;;;;;34.57;19.70;;;;;13.10;101758.00;;;;10431017;28;20681;-78
2021/11/17 13:14:48;;;;;;;37.87;20.83;;;;;12.80;101759.00;;;;10403382;28;20214;-79
2021/11/17 13:19:59;;;;;;;33.70;21.47;;;;;12.60;101747.00;;;;10425819;28;20222;-79
2021/11/17 13:25:12;;;;;;;34.93;21.10;;;;;12.50;101761.00;;;;10417011;28;20876;-78
2021/11/17 13:30:17;;;;;;;39.50;22.37;;;;;12.70;101745.00;;;;10418178;28;20234;-79
2021/11/17 13:35:46;;;;;;;44.07;19.60;;;;;13.00;101751.00;;;;10441820;28;20206;-78
2021/11/17 13:40:51;;;;;;;32.43;18.90;;;;;12.90;101759.00;;;;10408084;28;20222;-77
2021/11/17 13:45:58;;;;;;;30.30;17.27;;;;;12.80;101738.00;;;;10417482;28;20198;-78
2021/11/17 13:51:01;;;;;;;29.73;18.23;;;;;12.60;101747.00;;;;10423849;28;20198;-77
2021/11/17 13:56:10;;;;;;;25.77;15.20;;;;;12.50;101749.00;;;;10372569;28;20223;-79
2021/11/17 14:01:12;;;;;;;30.60;13.50;;;;;12.30;101752.00;;;;10383635;28;20199;-79
2021/11/17 14:06:17;;;;;;;30.00;12.87;;;;;12.10;101768.00;;;;10449610;28;20194;-79
2021/11/17 14:11:19;;;;;;;20.77;10.47;;;;;11.80;101760.00;;;;10418664;28;20207;-78
2021/11/17 14:16:21;;;;;;;21.20;10.30;;;;;11.60;101762.00;;;;10387749;28;20228;-77
2021/11/17 14:21:25;;;;;;;19.10;8.17;;;;;11.30;101757.00;;;;10405247;28;20202;-77
2021/11/17 14:26:28;;;;;;;21.13;8.83;;;;;11.20;101780.00;;;;10406799;28;20198;-77
2021/11/17 14:31:41;;;;;;;15.70;7.17;;;;;11.20;101791.00;;;;10364171;28;20257;-77
2021/11/17 14:36:50;;;;;;;17.40;6.50;;;;;11.00;101795.00;;;;10436328;28;20225;-77
2021/11/17 14:41:56;;;;;;;18.17;3.93;;;;;11.00;101797.00;;;;10425072;28;20257;-77
2021/11/17 14:46:59;;;;;;;16.70;4.70;;;;;11.00;101796.00;;;;10435424;28;20221;-77
2021/11/17 14:52:11;;;;;;;15.13;3.63;;;;;11.00;101790.00;;;;10405160;28;20202;-77
2021/11/17 14:57:13;;;;;;;9.40;3.23;;;;;10.80;101782.00;;;;10421020;28;20233;-77
2021/11/17 15:02:15;;;;;;;17.50;4.00;;;;;10.70;101785.00;;;;10403850;28;20616;-77
2021/11/17 15:07:23;;;;;;;19.63;3.83;;;;;10.50;101790.00;;;;10402188;28;20195;-77
2021/11/17 15:12:31;;;;;;;16.80;3.83;;;;;10.40;101790.00;;;;10394956;28;20214;-77
2021/11/17 15:17:33;;;;;;;18.37;4.37;;;;;10.20;101793.00;;;;10402672;28;20249;-76
2021/11/17 15:22:38;;;;;;;22.87;4.80;;;;;10.10;101791.00;;;;10430539;28;20255;-77
2021/11/17 15:27:44;;;;;;;15.13;4.43;;;;;9.90;101803.00;;;;10402129;28;20203;-77
2021/11/17 15:32:49;;;;;;;18.50;4.47;;;;;9.70;101814.00;;;;10393810;28;20227;-78
2021/11/17 15:37:53;;;;;;;18.07;5.23;;;;;9.50;101816.00;;;;10393628;28;20842;-77
2021/11/17 15:42:56;;;;;;;20.27;6.10;;;;;9.30;101808.00;;;;10417014;28;20222;-77
2021/11/17 15:48:03;;;;;;;34.83;7.83;;;;;9.20;101835.00;;;;10405181;28;20209;-77
2021/11/17 15:53:05;;;;;;;16.67;5.77;;;;;9.00;101843.00;;;;10420522;28;20214;-77
2021/11/17 15:58:08;;;;;;;26.37;7.07;;;;;8.80;101842.00;;;;10411424;28;20207;-77
2021/11/17 16:03:10;;;;;;;18.47;6.30;;;;;8.60;101840.00;;;;10369116;28;20206;-77
2021/11/17 16:08:14;;;;;;;23.83;6.13;;;;;8.40;101850.00;;;;10416617;28;20201;-77
2021/11/17 16:13:16;;;;;;;19.70;5.97;;;;;8.40;101850.00;;;;10402567;28;20602;-77
2021/11/17 16:18:19;;;;;;;16.40;5.33;;;;;8.20;101852.00;;;;10416987;28;20246;-77
2021/11/17 16:28:32;;;;;;;19.63;6.33;;;;;8.10;101888.00;;;;10403160;28;20276;-77
2021/11/17 16:33:34;;;;;;;28.03;6.17;;;;;8.20;101893.00;;;;10420078;28;20236;-77
2021/11/17 16:38:37;;;;;;;22.37;5.67;;;;;8.10;101896.00;;;;10403137;28;20680;-77
2021/11/17 16:43:39;;;;;;;22.23;6.03;;;;;7.90;101889.00;;;;10436091;28;21064;-76
2021/11/17 16:48:42;;;;;;;15.27;6.67;;;;;7.70;101899.00;;;;10423316;28;20672;-77
2021/11/17 16:53:45;;;;;;;24.40;7.40;;;;;7.60;101900.00;;;;10422690;28;20669;-77
2021/11/17 16:58:47;;;;;;;18.77;7.33;;;;;7.60;101914.00;;;;10424659;28;20266;-77
2021/11/17 17:03:50;;;;;;;17.17;5.73;;;;;7.50;101913.00;;;;10378178;28;20198;-77
2021/11/17 17:08:54;;;;;;;17.27;5.90;;;;;7.30;101914.00;;;;10426960;28;20203;-77
2021/11/17 17:13:56;;;;;;;17.63;7.37;;;;;7.10;101931.00;;;;10442818;28;20241;-77
2021/11/17 17:19:18;;;;;;;15.97;5.50;;;;;7.00;101939.00;;;;10425534;28;20875;-77
2021/11/17 17:24:20;;;;;;;21.90;5.40;;;;;7.10;101959.00;;;;10425919;28;20217;-77
2021/11/17 17:29:28;;;;;;;19.57;8.00;;;;;7.00;101962.00;;;;10442779;28;20198;-77
2021/11/17 17:34:31;;;;;;;20.73;7.33;;;;;6.90;101970.00;;;;10426107;28;20209;-77
2021/11/17 17:39:36;;;;;;;18.80;6.70;;;;;6.80;101993.00;;;;10441737;28;20869;-77
2021/11/17 17:44:41;;;;;;;22.03;6.57;;;;;6.70;102003.00;;;;10425540;28;20674;-77
2021/11/17 17:49:43;;;;;;;22.17;7.53;;;;;6.70;102018.00;;;;10409106;28;20202;-77
2021/11/17 17:54:53;;;;;;;16.70;7.20;;;;;6.70;102007.00;;;;10424985;28;20248;-77
2021/11/17 17:59:56;;;;;;;19.50;6.43;;;;;6.70;102025.00;;;;10392080;28;20210;-77
2021/11/17 18:04:58;;;;;;;16.53;5.70;;;;;6.60;102023.00;;;;10407530;28;20198;-77
2021/11/17 18:10:01;;;;;;;27.90;7.50;;;;;6.70;102037.00;;;;10407269;28;20213;-77
2021/11/17 18:15:04;;;;;;;16.70;6.77;;;;;6.80;102048.00;;;;10424227;28;20203;-77
2021/11/17 18:20:09;;;;;;;29.27;7.93;;;;;6.80;102053.00;;;;10407363;28;20281;-77
2021/11/17 18:25:17;;;;;;;17.07;5.67;;;;;6.70;102051.00;;;;10406995;28;20257;-77
2021/11/17 18:30:20;;;;;;;21.63;6.23;;;;;6.70;102070.00;;;;10446912;28;20213;-77
2021/11/17 18:35:24;;;;;;;19.07;6.17;;;;;6.80;102084.00;;;;10427995;28;20193;-77
2021/11/17 18:40:36;;;;;;;18.33;6.70;;;;;6.80;102089.00;;;;10394612;28;20218;-77
2021/11/17 18:45:41;;;;;;;17.47;5.73;;;;;6.70;102087.00;;;;10397459;28;20300;-76
2021/11/17 18:50:47;;;;;;;19.53;5.50;;;;;6.70;102101.00;;;;10408271;28;20206;-77
2021/11/17 18:55:50;;;;;;;22.83;6.17;;;;;6.60;102095.00;;;;10404168;28;20210;-77
2021/11/17 19:00:52;;;;;;;16.37;5.40;;;;;6.50;102108.00;;;;10404619;28;20256;-76
2021/11/17 19:05:55;;;;;;;20.87;4.90;;;;;6.40;102101.00;;;;10397981;28;20226;-77
2021/11/17 19:11:17;;;;;;;23.77;6.30;;;;;6.30;102114.00;;;;10436314;28;20929;-77
2021/11/17 19:16:19;;;;;;;15.13;5.63;;;;;6.20;102114.00;;;;10391143;28;20206;-77
2021/11/17 19:21:20;;;;;;;22.87;8.50;;;;;6.20;102117.00;;;;10435688;28;20244;-76
2021/11/17 19:26:23;;;;;;;22.53;6.53;;;;;6.10;102113.00;;;;10378670;28;20202;-76
2021/11/17 19:31:26;;;;;;;24.40;7.23;;;;;6.10;102133.00;;;;10387352;28;20218;-77
2021/11/17 19:36:32;;;;;;;22.23;7.47;;;;;6.00;102134.00;;;;10402719;28;20245;-76
2021/11/17 19:41:36;;;;;;;23.60;10.30;;;;;6.00;102129.00;;;;10433301;28;20210;-77
2021/11/17 19:46:39;;;;;;;22.63;8.50;;;;;6.00;102144.00;;;;10421618;28;20286;-77
2021/11/17 19:51:46;;;;;;;18.73;7.93;;;;;6.00;102151.00;;;;10393754;28;20680;-77
2021/11/17 19:56:48;;;;;;;24.03;10.27;;;;;5.90;102166.00;;;;10419362;28;20210;-77
2021/11/17 20:01:53;;;;;;;20.23;9.00;;;;;5.80;102155.00;;;;10419792;28;20217;-76
2021/11/17 20:06:58;;;;;;;22.03;8.60;;;;;5.80;102171.00;;;;10382609;28;20194;-76
2021/11/17 20:12:02;;;;;;;23.10;9.73;;;;;5.80;102173.00;;;;10410405;28;20202;-77
2021/11/17 20:17:04;;;;;;;27.50;8.70;;;;;5.70;102175.00;;;;10397824;28;20218;-77
2021/11/17 20:22:07;;;;;;;16.33;7.60;;;;;5.80;102186.00;;;;10408393;28;20211;-77
2021/11/17 20:27:12;;;;;;;22.53;9.67;;;;;5.70;102191.00;;;;10410579;28;20198;-77
2021/11/17 20:32:14;;;;;;;28.33;8.47;;;;;5.60;102191.00;;;;10391291;28;20230;-77
2021/11/17 20:37:16;;;;;;;20.70;9.57;;;;;5.60;102200.00;;;;10397729;28;20218;-77
2021/11/17 20:42:20;;;;;;;19.40;9.50;;;;;5.60;102192.00;;;;10415746;28;20205;-77
2021/11/17 20:47:22;;;;;;;27.37;12.63;;;;;5.60;102193.00;;;;10432486;28;20198;-77
2021/11/17 20:52:29;;;;;;;21.73;9.80;;;;;5.70;102182.00;;;;10448061;28;20198;-77
2021/11/17 20:57:32;;;;;;;28.23;11.80;;;;;5.70;102194.00;;;;10406642;28;20215;-77
2021/11/17 21:02:34;;;;;;;25.47;11.30;;;;;5.80;102198.00;;;;10390933;28;20266;-77
2021/11/17 21:07:36;;;;;;;35.70;14.57;;;;;5.80;102223.00;;;;10394655;28;20241;-77
2021/11/17 21:12:40;;;;;;;23.07;11.13;;;;;5.90;102223.00;;;;10465281;28;20203;-77
2021/11/17 21:17:43;;;;;;;28.90;11.00;;;;;5.90;102218.00;;;;10398977;28;20218;-77
2021/11/17 21:22:52;;;;;;;29.97;12.10;;;;;5.90;102221.00;;;;10422851;28;20319;-77
2021/11/17 21:27:55;;;;;;;20.03;10.97;;;;;5.90;102226.00;;;;10416115;28;20199;-77
2021/11/17 21:32:57;;;;;;;29.40;10.50;;;;;5.90;102221.00;;;;10390655;28;20227;-77
2021/11/17 21:37:59;;;;;;;28.57;13.23;;;;;5.90;102246.00;;;;10388973;28;20223;-77
2021/11/17 21:43:03;;;;;;;24.70;11.20;;;;;5.80;102225.00;;;;10384274;28;20199;-77
2021/11/17 21:48:07;;;;;;;23.23;10.70;;;;;5.70;102228.00;;;;10380826;28;20202;-77
2021/11/17 21:53:09;;;;;;;30.57;10.93;;;;;5.60;102243.00;;;;10367602;28;20289;-77
2021/11/17 21:58:11;;;;;;;22.73;11.90;;;;;5.70;102250.00;;;;10384900;28;20230;-77
2021/11/17 22:03:14;;;;;;;27.83;12.47;;;;;5.70;102250.00;;;;10416155;28;20217;-77
2021/11/17 22:08:16;;;;;;;28.57;12.57;;;;;5.70;102239.00;;;;10450365;28;20661;-77
2021/11/17 22:13:20;;;;;;;31.47;12.17;;;;;5.70;102243.00;;;;10409694;28;20202;-77
2021/11/17 22:18:23;;;;;;;29.23;12.60;;;;;5.70;102243.00;;;;10424176;28;20218;-77
2021/11/17 22:23:30;;;;;;;31.67;12.57;;;;;5.70;102232.00;;;;10423948;28;20224;-77
2021/11/17 22:28:32;;;;;;;31.37;15.57;;;;;5.80;102245.00;;;;10381973;28;20673;-77
2021/11/17 22:33:36;;;;;;;35.60;11.97;;;;;5.80;102247.00;;;;10382233;28;20231;-77
2021/11/17 22:38:39;;;;;;;29.13;12.53;;;;;5.80;102254.00;;;;10378159;28;20237;-77
2021/11/17 22:43:42;;;;;;;25.87;14.13;;;;;5.80;102248.00;;;;10407140;28;20518;-77
2021/11/17 22:48:44;;;;;;;28.43;12.07;;;;;5.80;102257.00;;;;10407266;28;20217;-77
2021/11/17 22:53:48;;;;;;;29.13;11.90;;;;;5.80;102266.00;;;;10422149;28;20253;-77
2021/11/17 22:58:50;;;;;;;28.23;12.07;;;;;5.80;102250.00;;;;10423000;28;20299;-77
2021/11/17 23:03:53;;;;;;;33.73;11.77;;;;;5.80;102246.00;;;;10396463;28;20199;-77
2021/11/17 23:08:55;;;;;;;32.90;11.57;;;;;5.80;102252.00;;;;10392010;28;20206;-77
2021/11/17 23:13:59;;;;;;;40.80;11.87;;;;;5.70;102249.00;;;;10405469;28;20609;-77
2021/11/17 23:19:04;;;;;;;26.60;12.80;;;;;5.70;102248.00;;;;10438356;28;20242;-77
2021/11/17 23:24:16;;;;;;;29.07;13.07;;;;;5.70;102251.00;;;;10405624;28;20208;-77
2021/11/17 23:29:18;;;;;;;24.13;12.23;;;;;5.80;102249.00;;;;10405444;28;20201;-77
2021/11/17 23:34:24;;;;;;;29.03;12.10;;;;;5.70;102249.00;;;;10420245;28;20238;-78
2021/11/17 23:39:26;;;;;;;32.10;11.67;;;;;5.70;102255.00;;;;10404529;28;20222;-77
2021/11/17 23:44:28;;;;;;;26.77;11.53;;;;;5.70;102261.00;;;;10421016;28;20213;-78
2021/11/17 23:49:32;;;;;;;37.17;12.30;;;;;5.70;102259.00;;;;10401436;28;20202;-78
2021/11/17 23:54:35;;;;;;;25.30;12.47;;;;;5.70;102236.00;;;;10422957;28;20865;-79
2021/11/17 23:59:37;;;;;;;27.97;11.73;;;;;5.70;102243.00;;;;10422213;28;20222;-78
